sensor_id;sensor_type;location;lat;lon;timestamp;temperature;humidity
2623;DHT22;1321;48.690;9.022;2023-01-29T00:02:00;1.80;99.90
2623;DHT22;1321;48.690;9.022;2023-01-29T00:04:29;1.90;99.90
2623;DHT22;1321;48.690;9.022;2023-01-29T00:06:59;1.80;99.90
2623;DHT22;1321;48.690;9.022;2023-01-29T00:09:27;1.80;99.90
2623;DHT22;1321;48.690;9.022;2023-01-29T00:11:55;1.90;99.90
2623;DHT22;1321;48.690;9.022;2023-01-29T00:14:23;1.90;99.90
2623;DHT22;1321;48.690;9.022;2023-01-29T00:16:53;1.90;99.90
2623;DHT22;1321;48.690;9.022;2023-01-29T00:19:21;1.90;99.90
2623;DHT22;1321;48.690;9.022;2023-01-29T00:21:49;1.90;99.90
2623;DHT22;1321;48.690;9.022;2023-01-29T00:24:18;1.90;99.90
2623;DHT22;1321;48.690;9.022;2023-01-29T00:26:47;1.90;99.90
2623;DHT22;1321;48.690;9.022;2023-01-29T00:29:16;1.80;99.90
2623;DHT22;1321;48.690;9.022;2023-01-29T00:31:44;1.80;99.90
2623;DHT22;1321;48.690;9.022;2023-01-29T00:34:13;1.80;99.90
2623;DHT22;1321;48.690;9.022;2023-01-29T00:36:41;1.80;99.90
2623;DHT22;1321;48.690;9.022;2023-01-29T00:39:11;1.90;99.90
2623;DHT22;1321;48.690;9.022;2023-01-29T00:41:40;1.80;99.90
2623;DHT22;1321;48.690;9.022;2023-01-29T00:44:26;1.70;99.90
2623;DHT22;1321;48.690;9.022;2023-01-29T00:47:11;1.70;99.90
2623;DHT22;1321;48.690;9.022;2023-01-29T00:49:54;1.80;99.90
2623;DHT22;1321;48.690;9.022;2023-01-29T00:52:22;1.80;99.90
2623;DHT22;1321;48.690;9.022;2023-01-29T00:54:50;1.90;99.90
2623;DHT22;1321;48.690;9.022;2023-01-29T00:57:20;1.70;99.90
2623;DHT22;1321;48.690;9.022;2023-01-29T00:59:48;1.70;99.90
2623;DHT22;1321;48.690;9.022;2023-01-29T01:02:17;1.80;99.90
2623;DHT22;1321;48.690;9.022;2023-01-29T01:04:59;1.80;99.90
2623;DHT22;1321;48.690;9.022;2023-01-29T01:07:29;1.90;99.90
2623;DHT22;1321;48.690;9.022;2023-01-29T01:09:57;1.70;99.90
2623;DHT22;1321;48.690;9.022;2023-01-29T01:12:44;1.70;99.90
2623;DHT22;1321;48.690;9.022;2023-01-29T01:15:13;1.90;99.90
2623;DHT22;1321;48.690;9.022;2023-01-29T01:17:41;1.90;99.90
2623;DHT22;1321;48.690;9.022;2023-01-29T01:20:10;1.80;99.90
2623;DHT22;1321;48.690;9.022;2023-01-29T01:22:38;1.90;99.90
2623;DHT22;1321;48.690;9.022;2023-01-29T01:25:07;1.90;99.90
2623;DHT22;1321;48.690;9.022;2023-01-29T01:27:36;1.90;99.90
2623;DHT22;1321;48.690;9.022;2023-01-29T01:30:12;1.80;99.90
2623;DHT22;1321;48.690;9.022;2023-01-29T01:32:41;1.70;99.90
2623;DHT22;1321;48.690;9.022;2023-01-29T01:35:10;1.60;99.90
2623;DHT22;1321;48.690;9.022;2023-01-29T01:37:39;1.70;99.90
2623;DHT22;1321;48.690;9.022;2023-01-29T01:40:12;1.80;99.90
2623;DHT22;1321;48.690;9.022;2023-01-29T01:42:46;1.70;99.90
2623;DHT22;1321;48.690;9.022;2023-01-29T01:45:20;1.70;99.90
2623;DHT22;1321;48.690;9.022;2023-01-29T01:47:53;1.80;99.90
2623;DHT22;1321;48.690;9.022;2023-01-29T01:50:25;1.80;99.90
2623;DHT22;1321;48.690;9.022;2023-01-29T01:53:01;1.90;99.90
2623;DHT22;1321;48.690;9.022;2023-01-29T01:55:31;1.80;99.90
2623;DHT22;1321;48.690;9.022;2023-01-29T01:58:05;1.70;99.90
2623;DHT22;1321;48.690;9.022;2023-01-29T02:00:35;1.80;99.90
2623;DHT22;1321;48.690;9.022;2023-01-29T02:03:03;1.70;99.90
2623;DHT22;1321;48.690;9.022;2023-01-29T02:05:50;1.70;99.90
2623;DHT22;1321;48.690;9.022;2023-01-29T02:08:43;1.70;99.90
2623;DHT22;1321;48.690;9.022;2023-01-29T02:11:30;1.80;99.90
2623;DHT22;1321;48.690;9.022;2023-01-29T02:13:58;1.80;99.90
2623;DHT22;1321;48.690;9.022;2023-01-29T02:16:27;1.80;99.90
2623;DHT22;1321;48.690;9.022;2023-01-29T02:18:56;1.80;99.90
2623;DHT22;1321;48.690;9.022;2023-01-29T02:21:51;1.90;99.90
2623;DHT22;1321;48.690;9.022;2023-01-29T02:28:09;1.80;99.90
2623;DHT22;1321;48.690;9.022;2023-01-29T02:30:43;1.80;99.90
2623;DHT22;1321;48.690;9.022;2023-01-29T02:33:18;1.70;99.90
2623;DHT22;1321;48.690;9.022;2023-01-29T02:35:55;1.60;99.90
2623;DHT22;1321;48.690;9.022;2023-01-29T02:38:31;1.50;99.90
2623;DHT22;1321;48.690;9.022;2023-01-29T02:41:05;1.70;99.90
2623;DHT22;1321;48.690;9.022;2023-01-29T02:43:44;1.70;99.90
2623;DHT22;1321;48.690;9.022;2023-01-29T02:46:20;1.80;99.90
2623;DHT22;1321;48.690;9.022;2023-01-29T02:48:56;1.70;99.90
2623;DHT22;1321;48.690;9.022;2023-01-29T02:51:29;1.70;99.90
2623;DHT22;1321;48.690;9.022;2023-01-29T02:54:03;1.70;95.20
2623;DHT22;1321;48.690;9.022;2023-01-29T02:56:39;1.70;99.20
2623;DHT22;1321;48.690;9.022;2023-01-29T02:59:13;1.70;99.90
2623;DHT22;1321;48.690;9.022;2023-01-29T03:01:47;1.70;88.20
2623;DHT22;1321;48.690;9.022;2023-01-29T03:04:19;1.70;22.10
2623;DHT22;1321;48.690;9.022;2023-01-29T03:06:50;1.70;1.00
2623;DHT22;1321;48.690;9.022;2023-01-29T03:09:25;1.60;47.70
2623;DHT22;1321;48.690;9.022;2023-01-29T03:12:00;1.60;94.30
2623;DHT22;1321;48.690;9.022;2023-01-29T03:14:34;1.50;59.80
2623;DHT22;1321;48.690;9.022;2023-01-29T03:17:20;1.60;90.60
2623;DHT22;1321;48.690;9.022;2023-01-29T03:19:50;1.60;39.50
2623;DHT22;1321;48.690;9.022;2023-01-29T03:22:19;1.60;93.50
2623;DHT22;1321;48.690;9.022;2023-01-29T03:24:51;1.70;31.50
2623;DHT22;1321;48.690;9.022;2023-01-29T03:27:47;1.80;29.20
2623;DHT22;1321;48.690;9.022;2023-01-29T03:30:39;1.70;35.90
2623;DHT22;1321;48.690;9.022;2023-01-29T03:33:27;1.60;63.10
2623;DHT22;1321;48.690;9.022;2023-01-29T03:36:06;1.70;30.00
2623;DHT22;1321;48.690;9.022;2023-01-29T03:38:35;1.70;18.20
2623;DHT22;1321;48.690;9.022;2023-01-29T03:41:07;1.60;1.00
2623;DHT22;1321;48.690;9.022;2023-01-29T03:43:42;1.70;19.10
2623;DHT22;1321;48.690;9.022;2023-01-29T03:46:17;1.80;1.00
2623;DHT22;1321;48.690;9.022;2023-01-29T03:48:54;1.60;1.00
2623;DHT22;1321;48.690;9.022;2023-01-29T03:51:29;1.70;30.40
2623;DHT22;1321;48.690;9.022;2023-01-29T03:54:06;1.90;1.00
2623;DHT22;1321;48.690;9.022;2023-01-29T03:56:43;1.80;1.00
2623;DHT22;1321;48.690;9.022;2023-01-29T03:59:20;1.80;1.00
2623;DHT22;1321;48.690;9.022;2023-01-29T04:01:53;1.70;1.00
2623;DHT22;1321;48.690;9.022;2023-01-29T04:04:25;1.60;1.00
2623;DHT22;1321;48.690;9.022;2023-01-29T04:07:00;1.70;1.00
2623;DHT22;1321;48.690;9.022;2023-01-29T04:09:33;1.70;1.00
2623;DHT22;1321;48.690;9.022;2023-01-29T04:12:05;1.60;1.00
2623;DHT22;1321;48.690;9.022;2023-01-29T04:14:36;1.50;1.00
2623;DHT22;1321;48.690;9.022;2023-01-29T04:17:10;1.60;1.00
2623;DHT22;1321;48.690;9.022;2023-01-29T04:19:40;1.50;1.00
2623;DHT22;1321;48.690;9.022;2023-01-29T04:22:13;1.50;1.00
2623;DHT22;1321;48.690;9.022;2023-01-29T04:24:42;1.60;1.20
2623;DHT22;1321;48.690;9.022;2023-01-29T04:27:22;1.60;1.00
2623;DHT22;1321;48.690;9.022;2023-01-29T04:30:11;1.50;1.00
2623;DHT22;1321;48.690;9.022;2023-01-29T04:32:53;1.50;1.00
2623;DHT22;1321;48.690;9.022;2023-01-29T04:35:28;1.50;1.00
2623;DHT22;1321;48.690;9.022;2023-01-29T04:38:07;1.60;1.00
2623;DHT22;1321;48.690;9.022;2023-01-29T04:40:47;1.50;1.00
2623;DHT22;1321;48.690;9.022;2023-01-29T04:43:23;1.50;1.00
2623;DHT22;1321;48.690;9.022;2023-01-29T04:46:06;1.50;1.00
2623;DHT22;1321;48.690;9.022;2023-01-29T04:48:45;1.40;1.00
2623;DHT22;1321;48.690;9.022;2023-01-29T04:51:20;1.40;1.00
2623;DHT22;1321;48.690;9.022;2023-01-29T04:53:56;1.40;1.00
2623;DHT22;1321;48.690;9.022;2023-01-29T04:56:28;1.40;1.00
2623;DHT22;1321;48.690;9.022;2023-01-29T04:59:02;1.40;1.00
2623;DHT22;1321;48.690;9.022;2023-01-29T05:01:33;1.60;1.00
2623;DHT22;1321;48.690;9.022;2023-01-29T05:04:06;1.60;1.00
2623;DHT22;1321;48.690;9.022;2023-01-29T05:06:37;1.50;1.00
2623;DHT22;1321;48.690;9.022;2023-01-29T05:09:06;1.40;1.00
2623;DHT22;1321;48.690;9.022;2023-01-29T05:11:36;1.50;1.00
2623;DHT22;1321;48.690;9.022;2023-01-29T05:14:06;1.50;1.00
2623;DHT22;1321;48.690;9.022;2023-01-29T05:16:40;1.50;1.00
2623;DHT22;1321;48.690;9.022;2023-01-29T05:19:12;1.50;1.00
2623;DHT22;1321;48.690;9.022;2023-01-29T05:21:43;1.50;1.00
2623;DHT22;1321;48.690;9.022;2023-01-29T05:24:14;1.50;3.20
2623;DHT22;1321;48.690;9.022;2023-01-29T05:26:43;1.60;12.10
2623;DHT22;1321;48.690;9.022;2023-01-29T05:29:29;1.60;1.00
2623;DHT22;1321;48.690;9.022;2023-01-29T05:31:57;1.50;1.00
2623;DHT22;1321;48.690;9.022;2023-01-29T05:34:27;1.50;1.00
2623;DHT22;1321;48.690;9.022;2023-01-29T05:36:55;1.50;1.00
2623;DHT22;1321;48.690;9.022;2023-01-29T05:39:23;1.50;1.00
2623;DHT22;1321;48.690;9.022;2023-01-29T05:41:51;1.70;1.00
2623;DHT22;1321;48.690;9.022;2023-01-29T05:44:20;1.50;1.00
2623;DHT22;1321;48.690;9.022;2023-01-29T05:46:49;1.40;1.00
2623;DHT22;1321;48.690;9.022;2023-01-29T05:49:17;1.40;1.00
2623;DHT22;1321;48.690;9.022;2023-01-29T05:51:47;1.40;7.90
2623;DHT22;1321;48.690;9.022;2023-01-29T05:54:15;1.40;1.00
2623;DHT22;1321;48.690;9.022;2023-01-29T05:56:43;1.50;1.00
2623;DHT22;1321;48.690;9.022;2023-01-29T05:59:12;1.60;1.00
2623;DHT22;1321;48.690;9.022;2023-01-29T06:01:41;1.70;1.00
2623;DHT22;1321;48.690;9.022;2023-01-29T06:04:09;1.70;1.00
2623;DHT22;1321;48.690;9.022;2023-01-29T06:06:38;1.70;1.00
2623;DHT22;1321;48.690;9.022;2023-01-29T06:09:09;1.70;1.00
2623;DHT22;1321;48.690;9.022;2023-01-29T06:11:37;1.70;1.00
2623;DHT22;1321;48.690;9.022;2023-01-29T06:14:05;1.60;99.90
2623;DHT22;1321;48.690;9.022;2023-01-29T06:16:33;1.60;99.90
2623;DHT22;1321;48.690;9.022;2023-01-29T06:19:01;1.60;99.90
2623;DHT22;1321;48.690;9.022;2023-01-29T06:21:30;1.60;99.90
2623;DHT22;1321;48.690;9.022;2023-01-29T06:23:58;1.70;99.90
2623;DHT22;1321;48.690;9.022;2023-01-29T06:26:27;1.70;99.90
2623;DHT22;1321;48.690;9.022;2023-01-29T06:28:55;1.60;1.00
2623;DHT22;1321;48.690;9.022;2023-01-29T06:31:23;1.60;99.90
2623;DHT22;1321;48.690;9.022;2023-01-29T06:34:05;1.70;99.90
2623;DHT22;1321;48.690;9.022;2023-01-29T06:36:33;1.70;99.90
2623;DHT22;1321;48.690;9.022;2023-01-29T06:39:02;1.70;99.90
2623;DHT22;1321;48.690;9.022;2023-01-29T06:41:32;1.60;99.90
2623;DHT22;1321;48.690;9.022;2023-01-29T06:44:00;1.50;1.00
2623;DHT22;1321;48.690;9.022;2023-01-29T06:46:28;1.50;1.00
2623;DHT22;1321;48.690;9.022;2023-01-29T06:48:57;1.60;1.00
2623;DHT22;1321;48.690;9.022;2023-01-29T06:51:26;1.50;99.90
2623;DHT22;1321;48.690;9.022;2023-01-29T06:53:54;1.50;99.90
2623;DHT22;1321;48.690;9.022;2023-01-29T06:56:23;1.60;1.00
2623;DHT22;1321;48.690;9.022;2023-01-29T06:58:52;1.80;99.90
2623;DHT22;1321;48.690;9.022;2023-01-29T07:01:20;1.80;99.90
2623;DHT22;1321;48.690;9.022;2023-01-29T07:04:02;1.80;99.90
2623;DHT22;1321;48.690;9.022;2023-01-29T07:06:30;1.70;99.90
2623;DHT22;1321;48.690;9.022;2023-01-29T07:08:58;1.60;99.90
2623;DHT22;1321;48.690;9.022;2023-01-29T07:11:26;1.60;99.90
2623;DHT22;1321;48.690;9.022;2023-01-29T07:13:56;1.50;99.90
2623;DHT22;1321;48.690;9.022;2023-01-29T07:16:24;1.50;99.90
2623;DHT22;1321;48.690;9.022;2023-01-29T07:18:53;1.60;99.90
2623;DHT22;1321;48.690;9.022;2023-01-29T07:21:21;1.50;99.90
2623;DHT22;1321;48.690;9.022;2023-01-29T07:23:49;1.60;99.90
2623;DHT22;1321;48.690;9.022;2023-01-29T07:26:17;1.70;99.90
2623;DHT22;1321;48.690;9.022;2023-01-29T07:28:45;1.70;99.90
2623;DHT22;1321;48.690;9.022;2023-01-29T07:31:15;1.70;99.90
2623;DHT22;1321;48.690;9.022;2023-01-29T07:33:43;1.70;99.90
2623;DHT22;1321;48.690;9.022;2023-01-29T07:36:14;1.70;99.90
2623;DHT22;1321;48.690;9.022;2023-01-29T07:38:42;1.60;99.90
2623;DHT22;1321;48.690;9.022;2023-01-29T07:41:11;1.80;99.90
2623;DHT22;1321;48.690;9.022;2023-01-29T07:43:39;1.70;99.90
2623;DHT22;1321;48.690;9.022;2023-01-29T07:46:07;1.80;99.90
2623;DHT22;1321;48.690;9.022;2023-01-29T07:48:37;1.80;99.90
2623;DHT22;1321;48.690;9.022;2023-01-29T07:51:05;1.70;99.90
2623;DHT22;1321;48.690;9.022;2023-01-29T07:53:34;1.70;99.90
2623;DHT22;1321;48.690;9.022;2023-01-29T07:56:03;1.70;99.90
2623;DHT22;1321;48.690;9.022;2023-01-29T07:58:31;1.60;99.90
2623;DHT22;1321;48.690;9.022;2023-01-29T08:01:04;1.70;99.90
2623;DHT22;1321;48.690;9.022;2023-01-29T08:03:33;1.70;99.90
2623;DHT22;1321;48.690;9.022;2023-01-29T08:06:03;1.80;99.90
2623;DHT22;1321;48.690;9.022;2023-01-29T08:08:31;1.80;99.90
2623;DHT22;1321;48.690;9.022;2023-01-29T08:11:00;1.80;99.90
2623;DHT22;1321;48.690;9.022;2023-01-29T08:13:29;1.90;99.90
2623;DHT22;1321;48.690;9.022;2023-01-29T08:15:59;1.80;99.90
2623;DHT22;1321;48.690;9.022;2023-01-29T08:18:28;1.90;99.90
2623;DHT22;1321;48.690;9.022;2023-01-29T08:21:00;1.80;99.90
2623;DHT22;1321;48.690;9.022;2023-01-29T08:23:30;1.80;99.90
2623;DHT22;1321;48.690;9.022;2023-01-29T08:26:00;1.90;99.90
2623;DHT22;1321;48.690;9.022;2023-01-29T08:28:29;1.90;99.90
2623;DHT22;1321;48.690;9.022;2023-01-29T08:30:57;1.90;99.90
2623;DHT22;1321;48.690;9.022;2023-01-29T08:33:25;1.90;99.90
2623;DHT22;1321;48.690;9.022;2023-01-29T08:36:05;1.70;99.90
2623;DHT22;1321;48.690;9.022;2023-01-29T08:38:35;1.70;99.90
2623;DHT22;1321;48.690;9.022;2023-01-29T08:41:03;1.70;99.90
2623;DHT22;1321;48.690;9.022;2023-01-29T08:43:32;1.70;99.90
2623;DHT22;1321;48.690;9.022;2023-01-29T08:46:02;1.80;99.90
2623;DHT22;1321;48.690;9.022;2023-01-29T08:48:31;1.80;99.90
2623;DHT22;1321;48.690;9.022;2023-01-29T08:51:00;1.90;99.90
2623;DHT22;1321;48.690;9.022;2023-01-29T08:53:30;1.90;99.90
2623;DHT22;1321;48.690;9.022;2023-01-29T08:56:00;1.90;99.90
2623;DHT22;1321;48.690;9.022;2023-01-29T08:58:28;1.80;99.90
2623;DHT22;1321;48.690;9.022;2023-01-29T09:00:56;1.80;99.90
2623;DHT22;1321;48.690;9.022;2023-01-29T09:03:31;1.80;99.90
2623;DHT22;1321;48.690;9.022;2023-01-29T09:06:00;1.90;99.90
2623;DHT22;1321;48.690;9.022;2023-01-29T09:08:28;2.00;99.90
2623;DHT22;1321;48.690;9.022;2023-01-29T09:10:57;2.10;99.90
2623;DHT22;1321;48.690;9.022;2023-01-29T09:13:27;2.00;99.90
2623;DHT22;1321;48.690;9.022;2023-01-29T09:15:58;2.00;99.90
2623;DHT22;1321;48.690;9.022;2023-01-29T09:18:27;2.10;99.90
2623;DHT22;1321;48.690;9.022;2023-01-29T09:20:56;2.10;99.90
2623;DHT22;1321;48.690;9.022;2023-01-29T09:23:24;2.10;99.90
2623;DHT22;1321;48.690;9.022;2023-01-29T09:25:52;2.10;99.90
2623;DHT22;1321;48.690;9.022;2023-01-29T09:28:21;2.20;99.90
2623;DHT22;1321;48.690;9.022;2023-01-29T09:30:51;2.30;99.90
2623;DHT22;1321;48.690;9.022;2023-01-29T09:33:19;2.30;99.90
2623;DHT22;1321;48.690;9.022;2023-01-29T09:35:48;2.20;99.90
2623;DHT22;1321;48.690;9.022;2023-01-29T09:38:16;2.20;99.90
2623;DHT22;1321;48.690;9.022;2023-01-29T09:40:51;2.10;99.90
2623;DHT22;1321;48.690;9.022;2023-01-29T09:43:26;2.20;99.90
2623;DHT22;1321;48.690;9.022;2023-01-29T09:46:03;2.20;99.90
2623;DHT22;1321;48.690;9.022;2023-01-29T09:48:33;2.20;99.90
2623;DHT22;1321;48.690;9.022;2023-01-29T09:51:05;2.20;99.90
2623;DHT22;1321;48.690;9.022;2023-01-29T09:53:42;2.30;99.90
2623;DHT22;1321;48.690;9.022;2023-01-29T09:56:15;2.30;99.90
2623;DHT22;1321;48.690;9.022;2023-01-29T09:58:46;2.30;99.90
2623;DHT22;1321;48.690;9.022;2023-01-29T10:01:20;2.30;99.90
2623;DHT22;1321;48.690;9.022;2023-01-29T10:07:33;2.40;99.90
2623;DHT22;1321;48.690;9.022;2023-01-29T10:10:23;2.30;99.90
2623;DHT22;1321;48.690;9.022;2023-01-29T10:13:02;2.30;99.90
2623;DHT22;1321;48.690;9.022;2023-01-29T10:15:55;2.30;99.90
2623;DHT22;1321;48.690;9.022;2023-01-29T10:18:54;2.30;99.90
2623;DHT22;1321;48.690;9.022;2023-01-29T10:24:36;2.50;99.90
2623;DHT22;1321;48.690;9.022;2023-01-29T10:27:11;2.50;99.90
2623;DHT22;1321;48.690;9.022;2023-01-29T10:29:41;2.40;99.90
2623;DHT22;1321;48.690;9.022;2023-01-29T10:32:14;2.60;99.90
2623;DHT22;1321;48.690;9.022;2023-01-29T10:34:48;2.70;99.90
2623;DHT22;1321;48.690;9.022;2023-01-29T10:37:19;2.90;99.90
2623;DHT22;1321;48.690;9.022;2023-01-29T10:39:50;2.80;99.90
2623;DHT22;1321;48.690;9.022;2023-01-29T10:42:27;2.80;99.90
2623;DHT22;1321;48.690;9.022;2023-01-29T10:45:16;2.70;99.90
2623;DHT22;1321;48.690;9.022;2023-01-29T10:47:58;2.70;99.90
2623;DHT22;1321;48.690;9.022;2023-01-29T10:50:46;2.70;99.90
2623;DHT22;1321;48.690;9.022;2023-01-29T10:53:34;2.90;99.90
2623;DHT22;1321;48.690;9.022;2023-01-29T10:56:16;2.90;99.90
2623;DHT22;1321;48.690;9.022;2023-01-29T10:58:51;2.80;99.90
2623;DHT22;1321;48.690;9.022;2023-01-29T11:01:20;2.80;99.90
2623;DHT22;1321;48.690;9.022;2023-01-29T11:03:56;2.90;99.90
2623;DHT22;1321;48.690;9.022;2023-01-29T11:06:29;2.90;99.90
2623;DHT22;1321;48.690;9.022;2023-01-29T11:09:03;3.00;99.90
2623;DHT22;1321;48.690;9.022;2023-01-29T11:11:39;3.00;99.90
2623;DHT22;1321;48.690;9.022;2023-01-29T11:14:12;3.10;99.90
2623;DHT22;1321;48.690;9.022;2023-01-29T11:16:43;3.10;99.90
2623;DHT22;1321;48.690;9.022;2023-01-29T11:19:13;3.20;99.90
2623;DHT22;1321;48.690;9.022;2023-01-29T11:21:56;3.30;99.90
2623;DHT22;1321;48.690;9.022;2023-01-29T11:24:24;3.30;99.90
2623;DHT22;1321;48.690;9.022;2023-01-29T11:26:55;3.30;99.90
2623;DHT22;1321;48.690;9.022;2023-01-29T11:29:42;3.20;99.90
2623;DHT22;1321;48.690;9.022;2023-01-29T11:32:13;3.20;99.90
2623;DHT22;1321;48.690;9.022;2023-01-29T11:35:01;3.20;99.90
2623;DHT22;1321;48.690;9.022;2023-01-29T11:37:36;3.30;99.90
2623;DHT22;1321;48.690;9.022;2023-01-29T11:40:34;3.20;99.90
2623;DHT22;1321;48.690;9.022;2023-01-29T11:43:17;3.10;99.90
2623;DHT22;1321;48.690;9.022;2023-01-29T11:45:47;3.20;99.90
2623;DHT22;1321;48.690;9.022;2023-01-29T11:48:18;3.20;99.90
2623;DHT22;1321;48.690;9.022;2023-01-29T11:50:51;3.30;99.90
2623;DHT22;1321;48.690;9.022;2023-01-29T11:53:29;3.40;99.90
2623;DHT22;1321;48.690;9.022;2023-01-29T11:55:59;3.40;99.90
2623;DHT22;1321;48.690;9.022;2023-01-29T11:58:32;3.40;99.90
2623;DHT22;1321;48.690;9.022;2023-01-29T12:01:02;3.50;99.90
2623;DHT22;1321;48.690;9.022;2023-01-29T12:03:35;3.40;99.90
2623;DHT22;1321;48.690;9.022;2023-01-29T12:06:13;3.30;99.90
2623;DHT22;1321;48.690;9.022;2023-01-29T12:08:53;3.30;99.90
2623;DHT22;1321;48.690;9.022;2023-01-29T12:11:28;3.30;99.90
2623;DHT22;1321;48.690;9.022;2023-01-29T12:13:59;3.20;99.90
2623;DHT22;1321;48.690;9.022;2023-01-29T12:16:30;3.30;99.90
2623;DHT22;1321;48.690;9.022;2023-01-29T12:19:08;3.30;99.90
2623;DHT22;1321;48.690;9.022;2023-01-29T12:21:43;3.40;99.90
2623;DHT22;1321;48.690;9.022;2023-01-29T12:24:24;3.50;99.90
2623;DHT22;1321;48.690;9.022;2023-01-29T12:27:03;3.50;99.90
2623;DHT22;1321;48.690;9.022;2023-01-29T12:29:38;3.60;99.90
2623;DHT22;1321;48.690;9.022;2023-01-29T12:32:17;3.70;99.90
2623;DHT22;1321;48.690;9.022;2023-01-29T12:34:50;3.70;99.90
2623;DHT22;1321;48.690;9.022;2023-01-29T12:37:22;3.80;99.90
2623;DHT22;1321;48.690;9.022;2023-01-29T12:39:56;3.80;99.90
2623;DHT22;1321;48.690;9.022;2023-01-29T12:42:24;3.80;99.90
2623;DHT22;1321;48.690;9.022;2023-01-29T12:44:56;3.70;99.90
2623;DHT22;1321;48.690;9.022;2023-01-29T12:47:27;3.80;99.90
2623;DHT22;1321;48.690;9.022;2023-01-29T12:50:03;3.70;99.90
2623;DHT22;1321;48.690;9.022;2023-01-29T12:52:38;3.70;99.90
2623;DHT22;1321;48.690;9.022;2023-01-29T12:55:17;3.70;99.90
2623;DHT22;1321;48.690;9.022;2023-01-29T12:57:49;3.80;99.90
2623;DHT22;1321;48.690;9.022;2023-01-29T13:00:23;3.60;99.90
2623;DHT22;1321;48.690;9.022;2023-01-29T13:02:55;3.70;99.90
2623;DHT22;1321;48.690;9.022;2023-01-29T13:05:28;3.80;99.90
2623;DHT22;1321;48.690;9.022;2023-01-29T13:08:03;3.90;99.90
2623;DHT22;1321;48.690;9.022;2023-01-29T13:10:37;4.10;99.90
2623;DHT22;1321;48.690;9.022;2023-01-29T13:13:14;4.20;99.90
2623;DHT22;1321;48.690;9.022;2023-01-29T13:15:43;4.20;99.90
2623;DHT22;1321;48.690;9.022;2023-01-29T13:18:25;4.30;99.90
2623;DHT22;1321;48.690;9.022;2023-01-29T13:20:59;4.20;99.90
2623;DHT22;1321;48.690;9.022;2023-01-29T13:23:32;4.20;99.90
2623;DHT22;1321;48.690;9.022;2023-01-29T13:26:04;4.20;99.90
2623;DHT22;1321;48.690;9.022;2023-01-29T13:28:33;4.10;99.90
2623;DHT22;1321;48.690;9.022;2023-01-29T13:31:13;4.20;99.90
2623;DHT22;1321;48.690;9.022;2023-01-29T13:33:51;4.20;99.90
2623;DHT22;1321;48.690;9.022;2023-01-29T13:36:24;4.10;99.90
2623;DHT22;1321;48.690;9.022;2023-01-29T13:38:59;4.20;99.90
2623;DHT22;1321;48.690;9.022;2023-01-29T13:41:35;4.20;99.90
2623;DHT22;1321;48.690;9.022;2023-01-29T13:44:07;4.20;99.90
2623;DHT22;1321;48.690;9.022;2023-01-29T13:46:39;4.30;99.90
2623;DHT22;1321;48.690;9.022;2023-01-29T13:49:29;4.20;99.90
2623;DHT22;1321;48.690;9.022;2023-01-29T13:52:16;4.20;99.90
2623;DHT22;1321;48.690;9.022;2023-01-29T13:54:54;4.20;99.90
2623;DHT22;1321;48.690;9.022;2023-01-29T13:57:48;4.20;99.90
2623;DHT22;1321;48.690;9.022;2023-01-29T14:00:54;4.20;99.90
2623;DHT22;1321;48.690;9.022;2023-01-29T14:03:52;4.30;99.90
2623;DHT22;1321;48.690;9.022;2023-01-29T14:06:44;4.30;99.90
2623;DHT22;1321;48.690;9.022;2023-01-29T14:12:40;4.50;99.90
2623;DHT22;1321;48.690;9.022;2023-01-29T14:15:27;4.50;99.90
2623;DHT22;1321;48.690;9.022;2023-01-29T14:18:14;4.40;99.90
2623;DHT22;1321;48.690;9.022;2023-01-29T14:20:53;4.30;99.90
2623;DHT22;1321;48.690;9.022;2023-01-29T14:23:30;4.40;99.90
2623;DHT22;1321;48.690;9.022;2023-01-29T14:26:03;4.30;99.90
2623;DHT22;1321;48.690;9.022;2023-01-29T14:28:33;4.30;99.90
2623;DHT22;1321;48.690;9.022;2023-01-29T14:31:04;4.20;99.90
2623;DHT22;1321;48.690;9.022;2023-01-29T14:33:35;4.20;99.90
2623;DHT22;1321;48.690;9.022;2023-01-29T14:36:10;4.20;99.90
2623;DHT22;1321;48.690;9.022;2023-01-29T14:38:40;4.20;99.90
2623;DHT22;1321;48.690;9.022;2023-01-29T14:41:19;4.00;99.90
2623;DHT22;1321;48.690;9.022;2023-01-29T14:43:50;4.00;99.90
2623;DHT22;1321;48.690;9.022;2023-01-29T14:46:43;4.00;99.90
2623;DHT22;1321;48.690;9.022;2023-01-29T14:49:11;4.00;99.90
2623;DHT22;1321;48.690;9.022;2023-01-29T14:52:02;4.10;99.90
2623;DHT22;1321;48.690;9.022;2023-01-29T14:54:38;4.00;99.90
2623;DHT22;1321;48.690;9.022;2023-01-29T14:57:12;3.90;99.90
2623;DHT22;1321;48.690;9.022;2023-01-29T14:59:48;3.90;99.90
2623;DHT22;1321;48.690;9.022;2023-01-29T15:02:25;3.80;99.90
2623;DHT22;1321;48.690;9.022;2023-01-29T15:04:59;3.80;99.90
2623;DHT22;1321;48.690;9.022;2023-01-29T15:07:34;3.70;99.90
2623;DHT22;1321;48.690;9.022;2023-01-29T15:10:16;3.80;99.90
2623;DHT22;1321;48.690;9.022;2023-01-29T15:12:52;3.80;99.90
2623;DHT22;1321;48.690;9.022;2023-01-29T15:15:32;3.80;99.90
2623;DHT22;1321;48.690;9.022;2023-01-29T15:18:07;3.90;99.90
2623;DHT22;1321;48.690;9.022;2023-01-29T15:20:40;3.90;99.90
2623;DHT22;1321;48.690;9.022;2023-01-29T15:23:27;4.00;99.90
2623;DHT22;1321;48.690;9.022;2023-01-29T15:25:57;3.90;99.90
2623;DHT22;1321;48.690;9.022;2023-01-29T15:28:27;4.00;99.90
2623;DHT22;1321;48.690;9.022;2023-01-29T15:30:59;4.00;99.90
2623;DHT22;1321;48.690;9.022;2023-01-29T15:33:30;4.10;99.90
2623;DHT22;1321;48.690;9.022;2023-01-29T15:36:00;4.10;99.90
2623;DHT22;1321;48.690;9.022;2023-01-29T15:38:34;4.00;99.90
2623;DHT22;1321;48.690;9.022;2023-01-29T15:41:15;4.00;99.90
2623;DHT22;1321;48.690;9.022;2023-01-29T15:43:45;4.10;99.90
2623;DHT22;1321;48.690;9.022;2023-01-29T15:46:19;3.90;99.90
2623;DHT22;1321;48.690;9.022;2023-01-29T15:48:50;4.00;99.90
2623;DHT22;1321;48.690;9.022;2023-01-29T15:51:22;4.00;99.90
2623;DHT22;1321;48.690;9.022;2023-01-29T15:53:55;3.90;99.90
2623;DHT22;1321;48.690;9.022;2023-01-29T15:56:25;3.80;99.90
2623;DHT22;1321;48.690;9.022;2023-01-29T15:58:56;3.80;99.90
2623;DHT22;1321;48.690;9.022;2023-01-29T16:01:27;3.70;99.90
2623;DHT22;1321;48.690;9.022;2023-01-29T16:03:58;3.70;99.90
2623;DHT22;1321;48.690;9.022;2023-01-29T16:06:32;3.60;99.90
2623;DHT22;1321;48.690;9.022;2023-01-29T16:09:00;3.50;99.90
2623;DHT22;1321;48.690;9.022;2023-01-29T16:11:29;3.50;99.90
2623;DHT22;1321;48.690;9.022;2023-01-29T16:13:58;3.50;99.90
2623;DHT22;1321;48.690;9.022;2023-01-29T16:16:28;3.50;99.90
2623;DHT22;1321;48.690;9.022;2023-01-29T16:18:57;3.60;99.90
2623;DHT22;1321;48.690;9.022;2023-01-29T16:21:30;3.50;99.90
2623;DHT22;1321;48.690;9.022;2023-01-29T16:24:01;3.50;99.90
2623;DHT22;1321;48.690;9.022;2023-01-29T16:26:33;3.50;99.90
2623;DHT22;1321;48.690;9.022;2023-01-29T16:29:04;3.50;99.90
2623;DHT22;1321;48.690;9.022;2023-01-29T16:31:34;3.40;99.90
2623;DHT22;1321;48.690;9.022;2023-01-29T16:34:09;3.40;99.90
2623;DHT22;1321;48.690;9.022;2023-01-29T16:36:44;3.30;99.90
2623;DHT22;1321;48.690;9.022;2023-01-29T16:39:17;3.30;99.90
2623;DHT22;1321;48.690;9.022;2023-01-29T16:44:49;3.20;99.90
2623;DHT22;1321;48.690;9.022;2023-01-29T16:47:25;3.20;99.90
2623;DHT22;1321;48.690;9.022;2023-01-29T16:49:56;3.20;99.90
2623;DHT22;1321;48.690;9.022;2023-01-29T16:52:27;3.20;99.90
2623;DHT22;1321;48.690;9.022;2023-01-29T16:55:00;3.00;99.90
2623;DHT22;1321;48.690;9.022;2023-01-29T16:57:31;2.90;99.90
2623;DHT22;1321;48.690;9.022;2023-01-29T17:00:02;2.80;99.90
2623;DHT22;1321;48.690;9.022;2023-01-29T17:02:36;2.80;99.90
2623;DHT22;1321;48.690;9.022;2023-01-29T17:05:09;2.80;99.90
2623;DHT22;1321;48.690;9.022;2023-01-29T17:07:45;2.90;99.90
2623;DHT22;1321;48.690;9.022;2023-01-29T17:10:17;2.70;99.90
2623;DHT22;1321;48.690;9.022;2023-01-29T17:12:53;2.60;99.90
2623;DHT22;1321;48.690;9.022;2023-01-29T17:15:42;2.50;99.90
2623;DHT22;1321;48.690;9.022;2023-01-29T17:18:16;2.50;99.90